sensor_id;sensor_type;location;lat;lon;timestamp;P1;durP1;ratioP1;P2;durP2;ratioP2
16075;SDS011;8142;48.242;11.644;2023-08-31T00:00:55;3.47;;;1.73;;
16075;SDS011;8142;48.242;11.644;2023-08-31T00:03:25;2.87;;;2.00;;
16075;SDS011;8142;48.242;11.644;2023-08-31T00:05:51;2.03;;;1.83;;
16075;SDS011;8142;48.242;11.644;2023-08-31T00:08:17;1.87;;;1.77;;
16075;SDS011;8142;48.242;11.644;2023-08-31T00:10:43;2.17;;;2.00;;
16075;SDS011;8142;48.242;11.644;2023-08-31T00:13:10;2.23;;;2.03;;
16075;SDS011;8142;48.242;11.644;2023-08-31T00:15:37;2.47;;;1.93;;
16075;SDS011;8142;48.242;11.644;2023-08-31T00:18:05;2.30;;;2.10;;
16075;SDS011;8142;48.242;11.644;2023-08-31T00:20:32;1.93;;;1.83;;
16075;SDS011;8142;48.242;11.644;2023-08-31T00:22:59;2.03;;;1.93;;
16075;SDS011;8142;48.242;11.644;2023-08-31T00:25:25;2.53;;;1.93;;
16075;SDS011;8142;48.242;11.644;2023-08-31T00:27:52;3.00;;;2.00;;
16075;SDS011;8142;48.242;11.644;2023-08-31T00:30:19;1.90;;;1.80;;
16075;SDS011;8142;48.242;11.644;2023-08-31T00:32:45;2.13;;;1.90;;
16075;SDS011;8142;48.242;11.644;2023-08-31T00:35:13;2.03;;;1.93;;
16075;SDS011;8142;48.242;11.644;2023-08-31T00:37:39;1.90;;;1.80;;
16075;SDS011;8142;48.242;11.644;2023-08-31T00:40:05;3.30;;;2.10;;
16075;SDS011;8142;48.242;11.644;2023-08-31T00:42:34;2.10;;;1.90;;
16075;SDS011;8142;48.242;11.644;2023-08-31T00:45:00;2.07;;;1.90;;
16075;SDS011;8142;48.242;11.644;2023-08-31T00:47:33;2.70;;;2.27;;
16075;SDS011;8142;48.242;11.644;2023-08-31T00:49:59;4.17;;;2.00;;
16075;SDS011;8142;48.242;11.644;2023-08-31T00:52:26;3.33;;;1.97;;
16075;SDS011;8142;48.242;11.644;2023-08-31T00:54:53;2.20;;;2.00;;
16075;SDS011;8142;48.242;11.644;2023-08-31T00:57:19;2.40;;;2.20;;
16075;SDS011;8142;48.242;11.644;2023-08-31T00:59:45;2.53;;;2.00;;
16075;SDS011;8142;48.242;11.644;2023-08-31T01:07:38;2.20;;;2.00;;
16075;SDS011;8142;48.242;11.644;2023-08-31T01:13:11;2.77;;;2.23;;
16075;SDS011;8142;48.242;11.644;2023-08-31T01:15:41;2.20;;;2.00;;
16075;SDS011;8142;48.242;11.644;2023-08-31T01:18:11;2.53;;;1.90;;
16075;SDS011;8142;48.242;11.644;2023-08-31T01:20:42;2.30;;;2.10;;
16075;SDS011;8142;48.242;11.644;2023-08-31T01:23:18;2.20;;;2.10;;
16075;SDS011;8142;48.242;11.644;2023-08-31T01:25:45;2.50;;;2.20;;
16075;SDS011;8142;48.242;11.644;2023-08-31T01:28:13;2.20;;;2.00;;
16075;SDS011;8142;48.242;11.644;2023-08-31T01:30:40;2.13;;;2.03;;
16075;SDS011;8142;48.242;11.644;2023-08-31T01:33:06;3.67;;;2.30;;
16075;SDS011;8142;48.242;11.644;2023-08-31T01:35:34;3.47;;;2.30;;
16075;SDS011;8142;48.242;11.644;2023-08-31T01:38:23;2.97;;;2.27;;
16075;SDS011;8142;48.242;11.644;2023-08-31T01:41:03;2.43;;;2.23;;
16075;SDS011;8142;48.242;11.644;2023-08-31T01:43:33;3.53;;;2.13;;
16075;SDS011;8142;48.242;11.644;2023-08-31T01:46:00;2.50;;;2.30;;
16075;SDS011;8142;48.242;11.644;2023-08-31T01:48:26;2.47;;;2.23;;
16075;SDS011;8142;48.242;11.644;2023-08-31T01:50:52;3.10;;;2.43;;
16075;SDS011;8142;48.242;11.644;2023-08-31T01:53:18;4.90;;;2.60;;
16075;SDS011;8142;48.242;11.644;2023-08-31T01:55:44;2.80;;;2.60;;
16075;SDS011;8142;48.242;11.644;2023-08-31T01:58:10;3.53;;;2.30;;
16075;SDS011;8142;48.242;11.644;2023-08-31T02:00:36;3.10;;;2.80;;
16075;SDS011;8142;48.242;11.644;2023-08-31T02:03:03;3.20;;;2.60;;
16075;SDS011;8142;48.242;11.644;2023-08-31T02:05:29;3.50;;;2.57;;
16075;SDS011;8142;48.242;11.644;2023-08-31T02:07:55;3.00;;;2.57;;
16075;SDS011;8142;48.242;11.644;2023-08-31T02:10:21;2.87;;;2.57;;
16075;SDS011;8142;48.242;11.644;2023-08-31T02:12:47;2.70;;;2.50;;
16075;SDS011;8142;48.242;11.644;2023-08-31T02:15:13;2.63;;;2.43;;
16075;SDS011;8142;48.242;11.644;2023-08-31T02:17:38;3.33;;;3.03;;
16075;SDS011;8142;48.242;11.644;2023-08-31T02:20:04;2.70;;;2.50;;
16075;SDS011;8142;48.242;11.644;2023-08-31T02:22:33;5.17;;;2.90;;
16075;SDS011;8142;48.242;11.644;2023-08-31T02:25:00;2.77;;;2.57;;
16075;SDS011;8142;48.242;11.644;2023-08-31T02:27:29;2.93;;;2.73;;
16075;SDS011;8142;48.242;11.644;2023-08-31T02:29:55;3.00;;;2.70;;
16075;SDS011;8142;48.242;11.644;2023-08-31T02:32:21;3.53;;;2.83;;
16075;SDS011;8142;48.242;11.644;2023-08-31T02:34:46;3.27;;;2.97;;
16075;SDS011;8142;48.242;11.644;2023-08-31T02:37:12;3.10;;;2.80;;
16075;SDS011;8142;48.242;11.644;2023-08-31T02:39:38;3.50;;;3.20;;
16075;SDS011;8142;48.242;11.644;2023-08-31T02:42:05;3.63;;;3.33;;
16075;SDS011;8142;48.242;11.644;2023-08-31T02:44:31;3.67;;;3.20;;
16075;SDS011;8142;48.242;11.644;2023-08-31T02:46:57;3.50;;;3.20;;
16075;SDS011;8142;48.242;11.644;2023-08-31T02:49:23;3.40;;;3.17;;
16075;SDS011;8142;48.242;11.644;2023-08-31T02:51:49;3.97;;;3.47;;
16075;SDS011;8142;48.242;11.644;2023-08-31T02:54:15;3.97;;;3.37;;
16075;SDS011;8142;48.242;11.644;2023-08-31T02:56:41;3.73;;;3.20;;
16075;SDS011;8142;48.242;11.644;2023-08-31T02:59:07;4.60;;;3.30;;
16075;SDS011;8142;48.242;11.644;2023-08-31T03:01:33;4.70;;;3.50;;
16075;SDS011;8142;48.242;11.644;2023-08-31T03:03:59;3.80;;;3.17;;
16075;SDS011;8142;48.242;11.644;2023-08-31T03:06:25;3.30;;;3.10;;
16075;SDS011;8142;48.242;11.644;2023-08-31T03:08:51;3.37;;;3.07;;
16075;SDS011;8142;48.242;11.644;2023-08-31T03:11:17;3.70;;;3.40;;
16075;SDS011;8142;48.242;11.644;2023-08-31T03:13:43;4.07;;;3.47;;
16075;SDS011;8142;48.242;11.644;2023-08-31T03:16:09;3.50;;;3.13;;
16075;SDS011;8142;48.242;11.644;2023-08-31T03:18:34;3.50;;;3.20;;
16075;SDS011;8142;48.242;11.644;2023-08-31T03:21:00;4.03;;;3.30;;
16075;SDS011;8142;48.242;11.644;2023-08-31T03:23:26;3.67;;;3.37;;
16075;SDS011;8142;48.242;11.644;2023-08-31T03:25:53;4.50;;;3.70;;
16075;SDS011;8142;48.242;11.644;2023-08-31T03:28:19;4.23;;;3.87;;
16075;SDS011;8142;48.242;11.644;2023-08-31T03:30:45;3.77;;;3.40;;
16075;SDS011;8142;48.242;11.644;2023-08-31T03:33:11;4.03;;;3.60;;
16075;SDS011;8142;48.242;11.644;2023-08-31T03:35:40;4.30;;;3.87;;
16075;SDS011;8142;48.242;11.644;2023-08-31T03:38:05;4.50;;;4.10;;
16075;SDS011;8142;48.242;11.644;2023-08-31T03:40:32;4.83;;;4.43;;
16075;SDS011;8142;48.242;11.644;2023-08-31T03:42:58;5.10;;;4.63;;
16075;SDS011;8142;48.242;11.644;2023-08-31T03:45:25;5.40;;;4.90;;
16075;SDS011;8142;48.242;11.644;2023-08-31T03:47:51;5.20;;;4.70;;
16075;SDS011;8142;48.242;11.644;2023-08-31T03:50:16;6.40;;;5.20;;
16075;SDS011;8142;48.242;11.644;2023-08-31T03:52:43;5.53;;;4.93;;
16075;SDS011;8142;48.242;11.644;2023-08-31T03:55:09;6.57;;;4.73;;
16075;SDS011;8142;48.242;11.644;2023-08-31T03:57:35;5.00;;;4.33;;
16075;SDS011;8142;48.242;11.644;2023-08-31T04:00:01;5.33;;;4.80;;
16075;SDS011;8142;48.242;11.644;2023-08-31T04:02:33;6.43;;;4.50;;
16075;SDS011;8142;48.242;11.644;2023-08-31T04:05:00;4.33;;;3.93;;
16075;SDS011;8142;48.242;11.644;2023-08-31T04:07:26;4.73;;;4.20;;
16075;SDS011;8142;48.242;11.644;2023-08-31T04:09:52;5.83;;;4.40;;
16075;SDS011;8142;48.242;11.644;2023-08-31T04:12:17;6.40;;;4.27;;
16075;SDS011;8142;48.242;11.644;2023-08-31T04:14:43;5.43;;;4.47;;
16075;SDS011;8142;48.242;11.644;2023-08-31T04:17:09;4.80;;;4.30;;
16075;SDS011;8142;48.242;11.644;2023-08-31T04:19:35;7.70;;;4.20;;
16075;SDS011;8142;48.242;11.644;2023-08-31T04:22:02;4.30;;;3.77;;
16075;SDS011;8142;48.242;11.644;2023-08-31T04:24:29;4.53;;;4.13;;
16075;SDS011;8142;48.242;11.644;2023-08-31T04:26:55;4.83;;;4.00;;
16075;SDS011;8142;48.242;11.644;2023-08-31T04:29:21;4.37;;;3.97;;
16075;SDS011;8142;48.242;11.644;2023-08-31T04:31:47;4.27;;;3.80;;
16075;SDS011;8142;48.242;11.644;2023-08-31T04:34:13;5.73;;;3.97;;
16075;SDS011;8142;48.242;11.644;2023-08-31T04:36:39;5.20;;;3.77;;
16075;SDS011;8142;48.242;11.644;2023-08-31T04:39:04;4.30;;;3.90;;
16075;SDS011;8142;48.242;11.644;2023-08-31T04:41:31;4.00;;;3.37;;
16075;SDS011;8142;48.242;11.644;2023-08-31T04:43:56;4.13;;;3.40;;
16075;SDS011;8142;48.242;11.644;2023-08-31T04:46:22;3.90;;;3.60;;
16075;SDS011;8142;48.242;11.644;2023-08-31T04:48:48;4.97;;;3.87;;
16075;SDS011;8142;48.242;11.644;2023-08-31T04:51:30;4.43;;;4.00;;
16075;SDS011;8142;48.242;11.644;2023-08-31T04:53:58;3.63;;;3.33;;
16075;SDS011;8142;48.242;11.644;2023-08-31T04:56:24;4.07;;;3.70;;
16075;SDS011;8142;48.242;11.644;2023-08-31T04:58:50;3.83;;;3.40;;
16075;SDS011;8142;48.242;11.644;2023-08-31T05:01:15;4.93;;;3.60;;
16075;SDS011;8142;48.242;11.644;2023-08-31T05:03:41;3.97;;;3.60;;
16075;SDS011;8142;48.242;11.644;2023-08-31T05:06:07;4.77;;;3.77;;
16075;SDS011;8142;48.242;11.644;2023-08-31T05:08:33;4.37;;;3.50;;
16075;SDS011;8142;48.242;11.644;2023-08-31T05:10:59;4.00;;;3.50;;
16075;SDS011;8142;48.242;11.644;2023-08-31T05:13:28;3.83;;;3.50;;
16075;SDS011;8142;48.242;11.644;2023-08-31T05:15:53;4.07;;;3.63;;
16075;SDS011;8142;48.242;11.644;2023-08-31T05:18:19;4.03;;;3.50;;
16075;SDS011;8142;48.242;11.644;2023-08-31T05:20:45;3.50;;;3.10;;
16075;SDS011;8142;48.242;11.644;2023-08-31T05:23:14;3.67;;;3.20;;
16075;SDS011;8142;48.242;11.644;2023-08-31T05:25:43;3.40;;;3.10;;
16075;SDS011;8142;48.242;11.644;2023-08-31T05:28:09;3.40;;;3.10;;
16075;SDS011;8142;48.242;11.644;2023-08-31T05:30:35;3.60;;;3.30;;
16075;SDS011;8142;48.242;11.644;2023-08-31T05:33:01;4.00;;;3.17;;
16075;SDS011;8142;48.242;11.644;2023-08-31T05:35:29;3.30;;;3.07;;
16075;SDS011;8142;48.242;11.644;2023-08-31T05:37:55;3.60;;;3.30;;
16075;SDS011;8142;48.242;11.644;2023-08-31T05:40:21;3.67;;;3.10;;
16075;SDS011;8142;48.242;11.644;2023-08-31T05:42:47;3.77;;;3.00;;
16075;SDS011;8142;48.242;11.644;2023-08-31T05:45:13;3.73;;;2.87;;
16075;SDS011;8142;48.242;11.644;2023-08-31T05:47:40;3.10;;;2.80;;
16075;SDS011;8142;48.242;11.644;2023-08-31T05:50:06;3.33;;;3.00;;
16075;SDS011;8142;48.242;11.644;2023-08-31T05:52:32;3.70;;;2.90;;
16075;SDS011;8142;48.242;11.644;2023-08-31T05:54:58;3.07;;;2.37;;
16075;SDS011;8142;48.242;11.644;2023-08-31T05:57:25;3.70;;;3.00;;
16075;SDS011;8142;48.242;11.644;2023-08-31T05:59:53;3.67;;;2.77;;
16075;SDS011;8142;48.242;11.644;2023-08-31T06:02:19;2.83;;;2.63;;
16075;SDS011;8142;48.242;11.644;2023-08-31T06:04:45;3.00;;;2.67;;
16075;SDS011;8142;48.242;11.644;2023-08-31T06:07:11;3.10;;;2.60;;
16075;SDS011;8142;48.242;11.644;2023-08-31T06:09:36;3.37;;;2.50;;
16075;SDS011;8142;48.242;11.644;2023-08-31T06:12:03;3.10;;;2.80;;
16075;SDS011;8142;48.242;11.644;2023-08-31T06:14:30;3.70;;;2.40;;
16075;SDS011;8142;48.242;11.644;2023-08-31T06:16:56;4.47;;;2.80;;
16075;SDS011;8142;48.242;11.644;2023-08-31T06:19:22;3.00;;;2.60;;
16075;SDS011;8142;48.242;11.644;2023-08-31T06:21:47;2.70;;;2.50;;
16075;SDS011;8142;48.242;11.644;2023-08-31T06:24:13;3.57;;;2.80;;
16075;SDS011;8142;48.242;11.644;2023-08-31T06:26:40;2.60;;;2.40;;
16075;SDS011;8142;48.242;11.644;2023-08-31T06:29:06;2.73;;;2.20;;
16075;SDS011;8142;48.242;11.644;2023-08-31T06:31:34;3.33;;;2.30;;
16075;SDS011;8142;48.242;11.644;2023-08-31T06:34:00;3.07;;;2.47;;
16075;SDS011;8142;48.242;11.644;2023-08-31T06:36:26;3.40;;;2.20;;
16075;SDS011;8142;48.242;11.644;2023-08-31T06:38:52;2.80;;;2.47;;
16075;SDS011;8142;48.242;11.644;2023-08-31T06:41:17;3.87;;;2.60;;
16075;SDS011;8142;48.242;11.644;2023-08-31T06:43:43;2.63;;;2.23;;
16075;SDS011;8142;48.242;11.644;2023-08-31T06:46:11;3.43;;;2.37;;
16075;SDS011;8142;48.242;11.644;2023-08-31T06:48:37;5.20;;;2.50;;
16075;SDS011;8142;48.242;11.644;2023-08-31T06:51:02;4.40;;;2.50;;
16075;SDS011;8142;48.242;11.644;2023-08-31T06:53:29;3.57;;;2.60;;
16075;SDS011;8142;48.242;11.644;2023-08-31T06:55:56;3.03;;;2.50;;
16075;SDS011;8142;48.242;11.644;2023-08-31T06:58:22;3.43;;;2.50;;
16075;SDS011;8142;48.242;11.644;2023-08-31T07:00:48;2.50;;;2.20;;
16075;SDS011;8142;48.242;11.644;2023-08-31T07:03:14;3.40;;;2.27;;
16075;SDS011;8142;48.242;11.644;2023-08-31T07:05:43;2.63;;;2.03;;
16075;SDS011;8142;48.242;11.644;2023-08-31T07:08:09;2.83;;;2.13;;
16075;SDS011;8142;48.242;11.644;2023-08-31T07:10:35;2.53;;;2.20;;
16075;SDS011;8142;48.242;11.644;2023-08-31T07:13:02;2.50;;;2.30;;
16075;SDS011;8142;48.242;11.644;2023-08-31T07:15:29;2.40;;;2.20;;
16075;SDS011;8142;48.242;11.644;2023-08-31T07:17:55;5.37;;;2.00;;
16075;SDS011;8142;48.242;11.644;2023-08-31T07:20:21;3.63;;;2.17;;
16075;SDS011;8142;48.242;11.644;2023-08-31T07:22:46;2.63;;;1.83;;
16075;SDS011;8142;48.242;11.644;2023-08-31T07:25:13;2.67;;;2.10;;
16075;SDS011;8142;48.242;11.644;2023-08-31T07:27:39;3.13;;;2.00;;
16075;SDS011;8142;48.242;11.644;2023-08-31T07:30:05;2.30;;;2.10;;
16075;SDS011;8142;48.242;11.644;2023-08-31T07:32:32;3.90;;;2.20;;
16075;SDS011;8142;48.242;11.644;2023-08-31T07:34:58;3.33;;;2.50;;
16075;SDS011;8142;48.242;11.644;2023-08-31T07:37:24;3.03;;;2.20;;
16075;SDS011;8142;48.242;11.644;2023-08-31T07:39:49;2.30;;;2.10;;
16075;SDS011;8142;48.242;11.644;2023-08-31T07:42:16;3.00;;;2.60;;
16075;SDS011;8142;48.242;11.644;2023-08-31T07:44:42;2.97;;;2.30;;
16075;SDS011;8142;48.242;11.644;2023-08-31T07:47:09;3.47;;;2.40;;
16075;SDS011;8142;48.242;11.644;2023-08-31T07:49:35;3.20;;;2.20;;
16075;SDS011;8142;48.242;11.644;2023-08-31T07:52:01;5.70;;;2.50;;
16075;SDS011;8142;48.242;11.644;2023-08-31T07:54:28;3.67;;;2.30;;
16075;SDS011;8142;48.242;11.644;2023-08-31T07:56:54;4.70;;;2.20;;
16075;SDS011;8142;48.242;11.644;2023-08-31T07:59:20;2.30;;;2.10;;
16075;SDS011;8142;48.242;11.644;2023-08-31T08:01:46;3.60;;;2.40;;
16075;SDS011;8142;48.242;11.644;2023-08-31T08:04:13;3.67;;;2.20;;
16075;SDS011;8142;48.242;11.644;2023-08-31T08:06:39;3.13;;;1.97;;
16075;SDS011;8142;48.242;11.644;2023-08-31T08:09:05;3.43;;;2.00;;
16075;SDS011;8142;48.242;11.644;2023-08-31T08:11:31;2.10;;;1.80;;
16075;SDS011;8142;48.242;11.644;2023-08-31T08:13:57;2.50;;;2.10;;
16075;SDS011;8142;48.242;11.644;2023-08-31T08:16:23;3.00;;;2.10;;
16075;SDS011;8142;48.242;11.644;2023-08-31T08:18:49;3.13;;;1.97;;
16075;SDS011;8142;48.242;11.644;2023-08-31T08:21:15;3.80;;;2.10;;
16075;SDS011;8142;48.242;11.644;2023-08-31T08:23:41;3.00;;;2.10;;
16075;SDS011;8142;48.242;11.644;2023-08-31T08:26:07;8.07;;;2.17;;
16075;SDS011;8142;48.242;11.644;2023-08-31T08:28:33;2.60;;;1.80;;
16075;SDS011;8142;48.242;11.644;2023-08-31T08:31:02;3.60;;;2.10;;
16075;SDS011;8142;48.242;11.644;2023-08-31T08:33:29;3.67;;;2.07;;
16075;SDS011;8142;48.242;11.644;2023-08-31T08:35:58;3.07;;;1.90;;
16075;SDS011;8142;48.242;11.644;2023-08-31T08:38:25;2.70;;;1.80;;
16075;SDS011;8142;48.242;11.644;2023-08-31T08:40:51;2.13;;;1.70;;
16075;SDS011;8142;48.242;11.644;2023-08-31T08:43:18;2.33;;;1.83;;
16075;SDS011;8142;48.242;11.644;2023-08-31T08:45:51;2.40;;;2.10;;
16075;SDS011;8142;48.242;11.644;2023-08-31T08:48:17;2.63;;;2.17;;
16075;SDS011;8142;48.242;11.644;2023-08-31T08:50:44;4.27;;;2.10;;
16075;SDS011;8142;48.242;11.644;2023-08-31T08:53:10;2.43;;;1.80;;
16075;SDS011;8142;48.242;11.644;2023-08-31T08:55:36;5.17;;;1.87;;
16075;SDS011;8142;48.242;11.644;2023-08-31T08:58:03;3.53;;;1.90;;
16075;SDS011;8142;48.242;11.644;2023-08-31T09:00:29;2.27;;;1.67;;
16075;SDS011;8142;48.242;11.644;2023-08-31T09:02:55;4.47;;;2.17;;
16075;SDS011;8142;48.242;11.644;2023-08-31T09:05:22;3.20;;;1.93;;
16075;SDS011;8142;48.242;11.644;2023-08-31T09:08:09;3.60;;;2.07;;
16075;SDS011;8142;48.242;11.644;2023-08-31T09:10:39;5.87;;;2.00;;
16075;SDS011;8142;48.242;11.644;2023-08-31T09:13:06;5.10;;;2.30;;
16075;SDS011;8142;48.242;11.644;2023-08-31T09:15:44;2.50;;;2.00;;
16075;SDS011;8142;48.242;11.644;2023-08-31T09:18:32;3.73;;;2.20;;
16075;SDS011;8142;48.242;11.644;2023-08-31T09:20:58;2.77;;;2.00;;
16075;SDS011;8142;48.242;11.644;2023-08-31T09:23:26;4.77;;;2.30;;
16075;SDS011;8142;48.242;11.644;2023-08-31T09:25:53;4.70;;;2.10;;
16075;SDS011;8142;48.242;11.644;2023-08-31T09:28:24;6.40;;;2.10;;
16075;SDS011;8142;48.242;11.644;2023-08-31T09:30:53;3.63;;;2.20;;
16075;SDS011;8142;48.242;11.644;2023-08-31T09:33:30;2.90;;;2.27;;
16075;SDS011;8142;48.242;11.644;2023-08-31T09:35:57;3.87;;;2.10;;
16075;SDS011;8142;48.242;11.644;2023-08-31T09:38:29;3.90;;;2.07;;
16075;SDS011;8142;48.242;11.644;2023-08-31T09:41:04;2.73;;;1.90;;
16075;SDS011;8142;48.242;11.644;2023-08-31T09:43:33;3.60;;;2.00;;
16075;SDS011;8142;48.242;11.644;2023-08-31T09:45:59;4.47;;;2.30;;
16075;SDS011;8142;48.242;11.644;2023-08-31T09:48:28;2.70;;;1.97;;
16075;SDS011;8142;48.242;11.644;2023-08-31T09:50:55;3.37;;;2.10;;
16075;SDS011;8142;48.242;11.644;2023-08-31T09:53:23;3.17;;;2.10;;
16075;SDS011;8142;48.242;11.644;2023-08-31T09:55:51;3.50;;;2.03;;
16075;SDS011;8142;48.242;11.644;2023-08-31T09:58:19;5.60;;;2.20;;
16075;SDS011;8142;48.242;11.644;2023-08-31T10:00:48;5.47;;;2.33;;
16075;SDS011;8142;48.242;11.644;2023-08-31T10:03:15;4.37;;;2.30;;
16075;SDS011;8142;48.242;11.644;2023-08-31T10:05:45;4.03;;;2.20;;
16075;SDS011;8142;48.242;11.644;2023-08-31T10:08:12;2.20;;;2.00;;
16075;SDS011;8142;48.242;11.644;2023-08-31T10:10:39;3.70;;;1.87;;
16075;SDS011;8142;48.242;11.644;2023-08-31T10:13:05;2.90;;;1.90;;
16075;SDS011;8142;48.242;11.644;2023-08-31T10:15:33;3.93;;;2.00;;
16075;SDS011;8142;48.242;11.644;2023-08-31T10:18:04;2.37;;;2.00;;
16075;SDS011;8142;48.242;11.644;2023-08-31T10:20:32;5.00;;;2.43;;
16075;SDS011;8142;48.242;11.644;2023-08-31T10:23:03;4.50;;;2.03;;
16075;SDS011;8142;48.242;11.644;2023-08-31T10:28:21;3.53;;;2.13;;
16075;SDS011;8142;48.242;11.644;2023-08-31T10:33:40;6.50;;;2.17;;
16075;SDS011;8142;48.242;11.644;2023-08-31T10:36:17;3.53;;;2.03;;
16075;SDS011;8142;48.242;11.644;2023-08-31T10:38:45;3.63;;;2.13;;
16075;SDS011;8142;48.242;11.644;2023-08-31T10:43:44;4.43;;;2.27;;
16075;SDS011;8142;48.242;11.644;2023-08-31T10:48:58;3.53;;;2.30;;
16075;SDS011;8142;48.242;11.644;2023-08-31T10:51:27;4.57;;;2.37;;
16075;SDS011;8142;48.242;11.644;2023-08-31T10:56:51;5.93;;;3.00;;
16075;SDS011;8142;48.242;11.644;2023-08-31T10:59:26;5.27;;;2.83;;
16075;SDS011;8142;48.242;11.644;2023-08-31T11:02:06;4.87;;;2.50;;
16075;SDS011;8142;48.242;11.644;2023-08-31T11:04:51;4.23;;;2.20;;
16075;SDS011;8142;48.242;11.644;2023-08-31T11:07:20;5.33;;;2.40;;
16075;SDS011;8142;48.242;11.644;2023-08-31T11:09:50;4.10;;;2.40;;
16075;SDS011;8142;48.242;11.644;2023-08-31T11:12:15;6.73;;;2.70;;
16075;SDS011;8142;48.242;11.644;2023-08-31T11:14:41;6.33;;;2.90;;
16075;SDS011;8142;48.242;11.644;2023-08-31T11:17:07;3.87;;;2.63;;
16075;SDS011;8142;48.242;11.644;2023-08-31T11:19:35;5.23;;;2.60;;
16075;SDS011;8142;48.242;11.644;2023-08-31T11:22:03;5.23;;;2.30;;
16075;SDS011;8142;48.242;11.644;2023-08-31T11:24:31;3.73;;;2.20;;
16075;SDS011;8142;48.242;11.644;2023-08-31T11:26:57;3.30;;;2.37;;
16075;SDS011;8142;48.242;11.644;2023-08-31T11:29:24;3.53;;;2.23;;
16075;SDS011;8142;48.242;11.644;2023-08-31T11:31:50;4.73;;;2.43;;
16075;SDS011;8142;48.242;11.644;2023-08-31T11:34:16;7.03;;;2.33;;
16075;SDS011;8142;48.242;11.644;2023-08-31T11:36:44;5.23;;;2.20;;
16075;SDS011;8142;48.242;11.644;2023-08-31T11:39:11;5.27;;;2.20;;
16075;SDS011;8142;48.242;11.644;2023-08-31T11:41:38;3.60;;;2.13;;
16075;SDS011;8142;48.242;11.644;2023-08-31T11:44:07;2.83;;;2.00;;
16075;SDS011;8142;48.242;11.644;2023-08-31T11:46:38;5.53;;;2.47;;
16075;SDS011;8142;48.242;11.644;2023-08-31T11:49:07;3.53;;;2.20;;
16075;SDS011;8142;48.242;11.644;2023-08-31T11:51:35;3.73;;;2.40;;
16075;SDS011;8142;48.242;11.644;2023-08-31T11:54:04;4.10;;;2.27;;
16075;SDS011;8142;48.242;11.644;2023-08-31T11:56:43;7.63;;;2.43;;
16075;SDS011;8142;48.242;11.644;2023-08-31T11:59:12;4.20;;;2.23;;
16075;SDS011;8142;48.242;11.644;2023-08-31T12:01:40;4.73;;;2.30;;
16075;SDS011;8142;48.242;11.644;2023-08-31T12:04:13;2.93;;;1.90;;
16075;SDS011;8142;48.242;11.644;2023-08-31T12:06:41;2.43;;;1.90;;
16075;SDS011;8142;48.242;11.644;2023-08-31T12:09:11;2.80;;;1.70;;
16075;SDS011;8142;48.242;11.644;2023-08-31T12:11:37;5.10;;;2.17;;
16075;SDS011;8142;48.242;11.644;2023-08-31T12:14:03;4.40;;;2.00;;
16075;SDS011;8142;48.242;11.644;2023-08-31T12:16:44;2.70;;;1.70;;
16075;SDS011;8142;48.242;11.644;2023-08-31T12:19:11;3.37;;;1.83;;
16075;SDS011;8142;48.242;11.644;2023-08-31T12:21:37;4.60;;;1.97;;
16075;SDS011;8142;48.242;11.644;2023-08-31T12:24:04;3.13;;;1.80;;
16075;SDS011;8142;48.242;11.644;2023-08-31T12:26:31;3.80;;;2.00;;
16075;SDS011;8142;48.242;11.644;2023-08-31T12:28:57;3.63;;;2.13;;
16075;SDS011;8142;48.242;11.644;2023-08-31T12:31:23;3.27;;;1.90;;
16075;SDS011;8142;48.242;11.644;2023-08-31T12:33:49;6.67;;;2.10;;
16075;SDS011;8142;48.242;11.644;2023-08-31T12:36:15;12.57;;;2.27;;
16075;SDS011;8142;48.242;11.644;2023-08-31T12:38:41;4.63;;;2.30;;
16075;SDS011;8142;48.242;11.644;2023-08-31T12:41:07;5.10;;;2.20;;
16075;SDS011;8142;48.242;11.644;2023-08-31T12:43:34;4.33;;;1.73;;
16075;SDS011;8142;48.242;11.644;2023-08-31T12:46:01;2.87;;;1.73;;
16075;SDS011;8142;48.242;11.644;2023-08-31T12:48:31;4.87;;;2.07;;
16075;SDS011;8142;48.242;11.644;2023-08-31T12:50:58;3.57;;;2.10;;
16075;SDS011;8142;48.242;11.644;2023-08-31T12:53:26;4.70;;;1.87;;
16075;SDS011;8142;48.242;11.644;2023-08-31T12:55:53;5.93;;;2.07;;
16075;SDS011;8142;48.242;11.644;2023-08-31T12:58:19;5.23;;;2.20;;
16075;SDS011;8142;48.242;11.644;2023-08-31T13:00:47;3.57;;;1.90;;
16075;SDS011;8142;48.242;11.644;2023-08-31T13:03:14;4.90;;;2.03;;
16075;SDS011;8142;48.242;11.644;2023-08-31T13:05:40;5.27;;;2.00;;
16075;SDS011;8142;48.242;11.644;2023-08-31T13:08:07;3.43;;;2.10;;
16075;SDS011;8142;48.242;11.644;2023-08-31T13:10:34;2.63;;;1.90;;
16075;SDS011;8142;48.242;11.644;2023-08-31T13:13:02;3.07;;;1.97;;
16075;SDS011;8142;48.242;11.644;2023-08-31T13:15:28;5.97;;;2.23;;
16075;SDS011;8142;48.242;11.644;2023-08-31T13:17:57;4.37;;;2.37;;
16075;SDS011;8142;48.242;11.644;2023-08-31T13:20:23;2.37;;;1.97;;
16075;SDS011;8142;48.242;11.644;2023-08-31T13:22:49;3.73;;;2.10;;
16075;SDS011;8142;48.242;11.644;2023-08-31T13:25:15;3.77;;;2.00;;
16075;SDS011;8142;48.242;11.644;2023-08-31T13:27:42;3.23;;;1.90;;
16075;SDS011;8142;48.242;11.644;2023-08-31T13:30:08;6.07;;;1.93;;
16075;SDS011;8142;48.242;11.644;2023-08-31T13:32:34;4.33;;;2.03;;
16075;SDS011;8142;48.242;11.644;2023-08-31T13:35:00;4.43;;;2.10;;
16075;SDS011;8142;48.242;11.644;2023-08-31T13:37:26;5.43;;;2.03;;
16075;SDS011;8142;48.242;11.644;2023-08-31T13:39:53;3.80;;;2.20;;
16075;SDS011;8142;48.242;11.644;2023-08-31T13:42:20;3.73;;;2.20;;
16075;SDS011;8142;48.242;11.644;2023-08-31T13:44:46;3.37;;;2.30;;
16075;SDS011;8142;48.242;11.644;2023-08-31T13:47:12;3.00;;;2.00;;
16075;SDS011;8142;48.242;11.644;2023-08-31T13:49:38;3.43;;;2.10;;
16075;SDS011;8142;48.242;11.644;2023-08-31T13:52:04;4.27;;;2.20;;
16075;SDS011;8142;48.242;11.644;2023-08-31T13:54:31;2.20;;;1.73;;
16075;SDS011;8142;48.242;11.644;2023-08-31T13:56:59;13.63;;;2.27;;
16075;SDS011;8142;48.242;11.644;2023-08-31T13:59:25;5.63;;;2.30;;
16075;SDS011;8142;48.242;11.644;2023-08-31T14:01:54;2.17;;;1.80;;
16075;SDS011;8142;48.242;11.644;2023-08-31T14:04:20;4.13;;;2.10;;
16075;SDS011;8142;48.242;11.644;2023-08-31T14:06:47;4.57;;;2.00;;
16075;SDS011;8142;48.242;11.644;2023-08-31T14:09:14;4.60;;;2.00;;
16075;SDS011;8142;48.242;11.644;2023-08-31T14:11:40;4.47;;;1.90;;
16075;SDS011;8142;48.242;11.644;2023-08-31T14:14:07;3.33;;;1.70;;
16075;SDS011;8142;48.242;11.644;2023-08-31T14:16:36;4.23;;;1.90;;
16075;SDS011;8142;48.242;11.644;2023-08-31T14:19:03;2.93;;;1.80;;
16075;SDS011;8142;48.242;11.644;2023-08-31T14:21:30;4.70;;;2.13;;
16075;SDS011;8142;48.242;11.644;2023-08-31T14:23:56;6.67;;;2.00;;
16075;SDS011;8142;48.242;11.644;2023-08-31T14:26:22;5.10;;;1.80;;
16075;SDS011;8142;48.242;11.644;2023-08-31T14:28:49;8.03;;;1.87;;
16075;SDS011;8142;48.242;11.644;2023-08-31T14:31:16;4.33;;;2.30;;
16075;SDS011;8142;48.242;11.644;2023-08-31T14:33:43;2.70;;;1.77;;
16075;SDS011;8142;48.242;11.644;2023-08-31T14:36:09;4.73;;;2.20;;
16075;SDS011;8142;48.242;11.644;2023-08-31T14:38:35;5.23;;;2.07;;
16075;SDS011;8142;48.242;11.644;2023-08-31T14:41:01;3.10;;;1.83;;
16075;SDS011;8142;48.242;11.644;2023-08-31T14:43:27;6.37;;;1.90;;
16075;SDS011;8142;48.242;11.644;2023-08-31T14:45:53;7.27;;;2.27;;
16075;SDS011;8142;48.242;11.644;2023-08-31T14:48:19;9.97;;;2.70;;
16075;SDS011;8142;48.242;11.644;2023-08-31T14:50:44;8.17;;;2.53;;
16075;SDS011;8142;48.242;11.644;2023-08-31T14:53:10;9.17;;;2.50;;
16075;SDS011;8142;48.242;11.644;2023-08-31T14:55:36;11.13;;;2.87;;
16075;SDS011;8142;48.242;11.644;2023-08-31T14:58:04;10.17;;;2.53;;
16075;SDS011;8142;48.242;11.644;2023-08-31T15:00:31;7.00;;;2.20;;
16075;SDS011;8142;48.242;11.644;2023-08-31T15:02:57;3.30;;;1.83;;
16075;SDS011;8142;48.242;11.644;2023-08-31T15:05:23;3.33;;;2.00;;
16075;SDS011;8142;48.242;11.644;2023-08-31T15:07:50;4.17;;;2.00;;
16075;SDS011;8142;48.242;11.644;2023-08-31T15:10:16;3.40;;;2.00;;